Badan Meteorologi, Klimatologi, dan Geofisika

CUACA TERKINI BANDARA KUALANAMU

Minggu, 19 Januari 2020 04:01 UTC

Cuaca : Berawan

Angin : (dari) Barat Laut, 7.4 km/jam

Jarak Pandang : 8.0 km

Suhu : 30 °C

Waktu Pengamatan : 11:00 WIB

Selengkapnya>>>

DATA METEOROLOGI KUALANAMU

Data Metar Terbaru

WIMM 190400Z 30004KT 8000 SCT017 30/25 Q1012 NOSIG=

WIMM 190330Z 26003KT 8000 SCT017 30/25 Q1012 NOSIG=

WIMM 190300Z 27003KT 7000 SCT017 29/25 Q1012 NOSIG=

WIMM 190230Z 23005KT 6000 FEW018 29/25 Q1012 NOSIG=

WIMM 190200Z 22005KT 4000 HZ FEW018 28/25 Q1012 NOSIG=

WIMM 190130Z 23005KT 3000 HZ FEW018 27/25 Q1012 NOSIG=

TAF WIMM 182300Z 1900/2000 23004KT 2000 BR SCT018 BECMG 1902/1904 34010KT 9999 NSW BECMG 1912/1914 21004KT 4000 HZ =

Selengkapnya>>>

Data TAF Terbaru

TAF WIMM 182300Z 1900/2000 23004KT 2000 BR SCT018 BECMG 1902/1904 34010KT 9999 NSW BECMG 1912/1914 21004KT 4000 HZ =

Selengkapnya>>>

CITRA SATELIT

Enhanced
Citra Satelit
Cloud Type
Citra Satelit IR
Hotspot
Citra Satelit
Sebaran Asap
Citra Satelit